CYSN

St Catharines / Niagara District Airport

St Catharines, , Canada
TAF CYSN 151238Z 1513/1601 22008KT P6SM FEW080 SCT250 FM151700 25012KT P6SM FEW040 BKN250 BECMG 1600/1601 23008KT RMK NXT FCST BY 152000Z
Issued Valid From Valid To
Aug-15 @ 12:38 UTC
(4 minutes ago)
Aug-15 @ 13:00 UTC
(in 18 minutes)
Aug-16 @ 01:00 UTC
(in 12 hours)
Aug-15 @ 13:00 to Aug-15 @ 17:00
TAF CYSN 151238Z 1513/1601 22008KT P6SM FEW080 SCT250
Wind Visibility Clouds
220° at 8 knots Greater than 6 miles
  • Few at 8,000' AGL
  • Scattered at 25,000' AGL
From Aug-15 @ 17:00 to Aug-16 @ 00:00
FM151700 25012KT P6SM FEW040 BKN250
Wind Visibility Clouds
250° at 12 knots Greater than 6 miles
  • Few at 4,000' AGL
  • Broken at 25,000' AGL
Becoming Aug-16 @ 00:00 to Aug-16 @ 01:00
BECMG 1600/1601 23008KT RMK NXT FCST BY 152000Z
Wind Visibility Clouds
230° at 8 knots Greater than 6 miles
  • Few at 4,000' AGL
  • Broken at 25,000' AGL
TAF CYSN 151238Z 1513/1601 22008KT P6SM FEW080 SCT250 FM151700 25012KT P6SM FEW040 BKN250 BECMG 1600/1601 23008KT RMK NXT FCST BY 152000Z
Issued Aug-15 @ 12:38 UTC
(4 minutes ago)
Valid From Aug-15 @ 13:00 UTC
(in 18 minutes)
Valid To Aug-16 @ 01:00 UTC
(in 12 hours)
Aug-15 @ 13:00 - Aug-15 @ 17:00
Wind Visibility
220° at 8 knots Greater than 6 miles
Clouds
  • Few at 8,000' AGL
  • Scattered at 25,000' AGL
From Aug-15 @ 17:00 - Aug-16 @ 00:00
Wind Visibility
250° at 12 knots Greater than 6 miles
Clouds
  • Few at 4,000' AGL
  • Broken at 25,000' AGL
Becoming Aug-16 @ 00:00 - Aug-16 @ 01:00
Wind Visibility
230° at 8 knots Greater than 6 miles
Clouds
  • Few at 4,000' AGL
  • Broken at 25,000' AGL